Time;durP1;ratioP1;P1;durP2;ratioP2;P2;SDS_P1;SDS_P2;PMS_P1;PMS_P2;Temp;Humidity;BMP_temperature;BMP_pressure;BME280_temperature;BME280_humidity;BME280_pressure;Samples;Min_cycle;Max_cycle;Signal;HPM_P1;HPM_P2
2023/09/11 00:02:23;;;;;;;7.40;6.60;;;;;;;23.21;41.27;95475.06;6312340;27;109604;-66
2023/09/11 00:05:26;;;;;;;7.60;5.13;;;;;;;23.23;40.95;95480.91;6325328;27;109009;-66
2023/09/11 00:08:29;;;;;;;8.90;5.60;;;;;;;23.31;41.24;95471.41;6324788;27;109027;-66
2023/09/11 00:11:32;;;;;;;10.07;7.03;;;;;;;23.34;41.13;95476.13;6307060;27;109856;-66
2023/09/11 00:14:36;;;;;;;7.25;6.65;;;;;;;23.24;41.04;95477.13;6334016;27;109229;-66
2023/09/11 00:17:40;;;;;;;7.95;6.30;;;;;;;23.11;41.36;95472.63;6326622;27;111332;-67
2023/09/11 00:20:43;;;;;;;5.20;4.22;;;;;;;23.03;41.79;95476.03;6322842;27;109984;-67
2023/09/11 00:23:47;;;;;;;7.05;5.30;;;;;;;23.17;41.85;95471.41;6332239;27;109964;-70
2023/09/11 00:26:50;;;;;;;8.65;7.75;;;;;;;23.29;41.45;95461.03;6339809;27;109236;-70
2023/09/11 00:29:53;;;;;;;7.93;6.88;;;;;;;23.36;41.49;95457.16;6339678;27;109246;-70
2023/09/11 00:32:58;;;;;;;8.90;7.77;;;;;;;23.37;41.31;95453.38;6322795;27;109329;-70
2023/09/11 00:36:01;;;;;;;7.35;6.60;;;;;;;23.42;41.02;95461.28;6323355;27;110039;-70
2023/09/11 00:39:04;;;;;;;8.50;7.65;;;;;;;23.41;41.53;95459.69;6328997;27;109078;-70
2023/09/11 00:42:07;;;;;;;6.33;5.53;;;;;;;23.47;41.41;95453.91;6331322;27;109228;-70
2023/09/11 00:45:12;;;;;;;7.88;6.95;;;;;;;23.50;41.15;95457.84;6326844;27;109728;-70
2023/09/11 00:48:16;;;;;;;6.60;6.00;;;;;;;23.51;40.93;95462.09;6338954;27;109031;-70
2023/09/11 00:51:19;;;;;;;8.10;7.40;;;;;;;23.51;41.36;95451.41;6327140;27;109065;-70
2023/09/11 00:54:24;;;;;;;8.40;7.00;;;;;;;23.50;41.26;95452.50;6328453;27;109280;-70
2023/09/11 00:57:27;;;;;;;6.72;5.72;;;;;;;23.52;41.31;95447.66;6309090;27;110215;-69
2023/09/11 01:00:31;;;;;;;6.40;5.80;;;;;;;23.53;41.32;95454.59;6327630;27;109199;-68
2023/09/11 01:03:35;;;;;;;7.03;6.33;;;;;;;23.46;41.64;95451.56;6319499;27;109904;-70
2023/09/11 01:06:39;;;;;;;7.40;6.60;;;;;;;23.43;41.28;95449.50;6308279;27;109517;-68
2023/09/11 01:09:42;;;;;;;6.20;5.60;;;;;;;23.39;41.33;95448.53;6321639;27;109074;-70
2023/09/11 01:12:46;;;;;;;7.80;5.55;;;;;;;23.36;41.84;95449.94;6323757;27;110199;-70
2023/09/11 01:15:57;;;;;;;7.90;6.00;;;;;;;23.38;41.10;95447.75;6333162;27;109121;-69
2023/09/11 01:19:13;;;;;;;6.70;6.10;;;;;;;23.35;41.90;95450.22;6313785;27;108991;-69
2023/09/11 01:22:33;;;;;;;6.20;5.60;;;;;;;23.33;41.67;95444.38;6323066;27;109958;-69
2023/09/11 01:26:18;;;;;;;5.10;4.60;;;;;;;23.29;41.58;95439.66;6329259;27;109162;-70
2023/09/11 01:29:25;;;;;;;6.00;5.10;;;;;;;23.26;41.56;95436.78;6320521;27;109378;-69
2023/09/11 01:32:30;;;;;;;6.90;4.72;;;;;;;23.24;41.40;95439.75;6316724;27;109416;-66
2023/09/11 01:35:33;;;;;;;8.00;5.70;;;;;;;23.28;41.74;95443.38;6310246;27;109753;-65
2023/09/11 01:38:36;;;;;;;6.97;5.88;;;;;;;23.32;42.02;95437.47;6313404;27;108971;-64
2023/09/11 01:41:42;;;;;;;5.88;4.65;;;;;;;23.29;41.86;95436.97;6311693;27;109312;-64
2023/09/11 01:44:50;;;;;;;5.68;4.30;;;;;;;23.22;41.55;95433.16;6330040;27;111723;-65
2023/09/11 01:47:54;;;;;;;5.50;4.47;;;;;;;23.17;41.40;95441.25;6315971;27;109770;-65
2023/09/11 01:50:58;;;;;;;5.07;3.80;;;;;;;23.04;41.65;95445.56;6318363;27;109900;-65
2023/09/11 01:54:03;;;;;;;5.37;4.00;;;;;;;22.99;42.23;95438.44;6328081;27;109135;-65
2023/09/11 01:57:07;;;;;;;5.50;3.93;;;;;;;23.07;42.12;95433.50;6312565;27;109307;-65
2023/09/11 02:00:13;;;;;;;5.20;4.03;;;;;;;23.07;41.85;95436.94;6327096;27;110023;-64
2023/09/11 02:03:16;;;;;;;5.82;4.22;;;;;;;23.06;42.13;95440.72;6304969;27;109192;-64
2023/09/11 02:06:19;;;;;;;6.90;3.60;;;;;;;23.03;42.04;95441.31;6325471;27;111703;-64
2023/09/11 02:09:23;;;;;;;5.63;3.60;;;;;;;23.08;41.78;95432.41;6325034;27;109929;-65
2023/09/11 02:12:26;;;;;;;5.20;3.40;;;;;;;23.08;41.40;95427.06;6328559;27;109153;-64
2023/09/11 02:15:30;;;;;;;4.18;3.60;;;;;;;23.06;41.42;95426.56;6305886;27;109016;-64
2023/09/11 02:18:34;;;;;;;6.03;3.30;;;;;;;23.05;41.44;95427.66;6316521;27;109022;-66
2023/09/11 02:21:37;;;;;;;6.13;4.00;;;;;;;23.06;41.89;95421.25;6337798;27;110381;-65
2023/09/11 02:24:40;;;;;;;5.35;3.35;;;;;;;23.04;41.48;95421.53;6337421;27;109897;-65
2023/09/11 02:27:43;;;;;;;5.07;3.90;;;;;;;23.09;41.84;95418.75;6326688;27;109036;-65
2023/09/11 02:30:47;;;;;;;5.70;3.60;;;;;;;23.13;41.59;95424.25;6330440;27;109186;-65
2023/09/11 02:33:50;;;;;;;5.03;3.03;;;;;;;23.13;41.10;95421.59;6317572;27;108917;-65
2023/09/11 02:36:54;;;;;;;4.83;3.40;;;;;;;23.13;41.54;95422.38;6318230;27;109845;-68
2023/09/11 02:39:57;;;;;;;5.50;3.40;;;;;;;23.09;41.41;95418.75;6327359;27;109270;-64
2023/09/11 02:43:01;;;;;;;3.40;3.10;;;;;;;23.10;41.33;95408.84;6322728;27;109184;-67
2023/09/11 02:46:05;;;;;;;6.30;5.70;;;;;;;23.10;41.22;95414.97;6332349;27;111194;-67
2023/09/11 02:49:08;;;;;;;10.02;9.02;;;;;;;22.96;41.51;95416.91;6308319;27;110827;-66
2023/09/11 02:52:11;;;;;;;10.38;9.27;;;;;;;22.86;41.91;95409.16;6334488;27;110067;-66
2023/09/11 02:55:15;;;;;;;6.18;5.15;;;;;;;22.82;41.75;95416.16;6320280;27;109665;-66
2023/09/11 02:58:18;;;;;;;3.90;2.80;;;;;;;22.61;41.61;95416.59;6321136;27;112005;-67
2023/09/11 03:01:22;;;;;;;5.20;2.40;;;;;;;22.56;42.19;95410.56;6324824;27;112103;-66
2023/09/11 03:04:25;;;;;;;7.20;5.47;;;;;;;22.59;41.82;95408.13;6323454;27;110081;-66
2023/09/11 03:07:28;;;;;;;6.82;4.63;;;;;;;22.26;42.46;95406.66;6317934;27;109584;-66
2023/09/11 03:10:32;;;;;;;5.82;5.20;;;;;;;22.42;42.21;95399.91;6328021;27;109176;-68
2023/09/11 03:13:35;;;;;;;4.28;3.88;;;;;;;22.69;41.48;95399.91;6315591;27;109000;-69
2023/09/11 03:16:43;;;;;;;11.70;10.60;;;;;;;22.88;41.66;95396.28;6324180;27;110282;-68
2023/09/11 03:19:47;;;;;;;7.00;6.30;;;;;;;23.06;41.44;95407.88;6318230;27;109132;-68
2023/09/11 03:22:50;;;;;;;8.65;7.20;;;;;;;23.16;41.27;95407.63;6301804;27;111767;-67
2023/09/11 03:25:53;;;;;;;17.60;15.90;;;;;;;23.18;40.95;95402.78;6316190;27;110556;-68
2023/09/11 03:28:56;;;;;;;13.77;12.47;;;;;;;23.21;41.02;95400.31;6327345;27;109076;-67
2023/09/11 03:32:00;;;;;;;14.27;12.87;;;;;;;23.19;41.04;95402.50;6334188;27;109916;-67
2023/09/11 03:35:04;;;;;;;13.30;12.10;;;;;;;23.21;41.32;95405.66;6322933;27;109253;-67
2023/09/11 03:38:07;;;;;;;14.10;12.90;;;;;;;23.28;41.24;95405.22;6322212;27;109205;-68
2023/09/11 03:41:11;;;;;;;13.50;12.20;;;;;;;23.21;41.76;95413.66;6307202;27;109166;-67
2023/09/11 03:44:14;;;;;;;9.20;8.30;;;;;;;23.16;41.45;95410.31;6311132;27;109238;-67
2023/09/11 03:47:18;;;;;;;8.97;8.03;;;;;;;23.15;41.54;95414.06;6312295;27;109354;-67
2023/09/11 03:50:21;;;;;;;9.55;6.72;;;;;;;23.20;41.90;95414.75;6326556;27;110213;-67
2023/09/11 03:53:25;;;;;;;7.97;5.07;;;;;;;23.18;42.25;95400.91;6312128;27;109514;-69
2023/09/11 03:56:28;;;;;;;6.88;4.57;;;;;;;23.20;41.62;95409.41;6314331;27;110331;-70
2023/09/11 03:59:31;;;;;;;5.63;3.50;;;;;;;23.20;41.92;95417.44;6327896;27;109774;-68
2023/09/11 04:02:36;;;;;;;6.57;3.53;;;;;;;23.03;42.14;95411.16;6322186;27;109604;-68
2023/09/11 04:05:39;;;;;;;4.93;3.45;;;;;;;22.97;41.99;95421.16;6332657;27;109996;-67
2023/09/11 04:08:42;;;;;;;6.30;3.88;;;;;;;23.09;42.67;95418.75;6307177;27;109032;-66
2023/09/11 04:11:45;;;;;;;9.60;5.13;;;;;;;23.20;41.91;95422.78;6314439;27;109341;-67
2023/09/11 04:14:49;;;;;;;11.30;7.25;;;;;;;23.19;42.98;95423.06;6330047;27;109187;-67
2023/09/11 04:17:54;;;;;;;6.95;5.45;;;;;;;23.04;42.44;95416.22;6332923;27;109569;-67
2023/09/11 04:21:01;;;;;;;8.77;4.90;;;;;;;23.04;41.91;95416.22;6326520;27;109678;-67
2023/09/11 04:24:10;;;;;;;6.00;4.72;;;;;;;23.03;41.75;95419.97;6339351;27;109062;-67
2023/09/11 04:27:13;;;;;;;7.55;5.55;;;;;;;23.04;41.34;95426.09;6327656;27;109909;-67
2023/09/11 04:30:17;;;;;;;7.60;5.00;;;;;;;22.91;42.41;95430.38;6330206;27;109389;-69
2023/09/11 04:33:21;;;;;;;6.32;5.10;;;;;;;22.90;42.25;95428.81;6330493;27;109135;-68
2023/09/11 04:36:25;;;;;;;6.20;4.65;;;;;;;22.87;42.32;95430.19;6313741;27;109172;-68
2023/09/11 04:39:28;;;;;;;7.20;4.93;;;;;;;22.85;42.38;95423.56;6322633;27;109131;-68
2023/09/11 04:42:31;;;;;;;8.32;7.43;;;;;;;22.85;42.72;95429.72;6329841;27;109044;-68
2023/09/11 04:45:34;;;;;;;9.15;6.60;;;;;;;22.84;42.69;95435.31;6338206;27;109094;-68
2023/09/11 04:48:42;;;;;;;8.30;7.40;;;;;;;22.87;42.26;95432.88;6339325;27;109223;-68
2023/09/11 04:51:45;;;;;;;7.93;7.10;;;;;;;22.91;42.06;95435.72;6339254;27;110109;-68
2023/09/11 04:54:48;;;;;;;8.63;7.72;;;;;;;22.90;41.80;95431.47;6329046;27;108726;-69
2023/09/11 04:57:51;;;;;;;8.43;7.53;;;;;;;22.89;42.60;95440.56;6322638;27;109188;-68
2023/09/11 05:00:55;;;;;;;10.57;9.57;;;;;;;22.80;42.59;95437.03;6313377;27;109145;-68
2023/09/11 05:03:59;;;;;;;9.10;8.20;;;;;;;22.78;42.73;95439.19;6315826;27;109196;-67
2023/09/11 05:07:03;;;;;;;10.07;7.25;;;;;;;22.77;42.39;95440.28;6328906;27;108873;-69
2023/09/11 05:10:08;;;;;;;8.02;6.80;;;;;;;22.66;42.31;95429.81;6338545;27;109084;-68
2023/09/11 05:13:11;;;;;;;8.35;5.82;;;;;;;22.64;42.43;95429.34;6339212;27;109136;-67
2023/09/11 05:16:17;;;;;;;7.28;5.95;;;;;;;22.73;42.69;95425.97;6333414;27;109368;-67
2023/09/11 05:19:21;;;;;;;7.25;6.55;;;;;;;22.76;42.17;95428.03;6332968;27;108903;-68
2023/09/11 05:22:25;;;;;;;8.07;5.90;;;;;;;22.78;42.33;95420.53;6339604;27;111919;-67
2023/09/11 05:25:28;;;;;;;7.93;6.83;;;;;;;22.78;42.06;95429.31;6338673;27;109244;-68
2023/09/11 05:28:31;;;;;;;6.83;6.17;;;;;;;22.78;42.83;95423.97;6328580;27;109514;-67
2023/09/11 05:31:34;;;;;;;7.47;6.77;;;;;;;22.75;42.76;95429.91;6325163;27;109331;-67
2023/09/11 05:34:38;;;;;;;6.50;5.50;;;;;;;22.46;43.06;95419.56;6320131;27;109375;-67
2023/09/11 05:37:41;;;;;;;6.07;4.82;;;;;;;22.35;43.19;95421.66;6339099;27;108989;-67
2023/09/11 05:40:45;;;;;;;7.05;5.15;;;;;;;22.36;43.33;95423.25;6329919;27;110505;-66
2023/09/11 05:43:48;;;;;;;7.55;6.75;;;;;;;22.59;43.17;95424.13;6338608;27;108868;-68
2023/09/11 05:46:51;;;;;;;8.57;7.68;;;;;;;22.77;43.30;95433.06;6337876;27;109208;-67
2023/09/11 05:50:00;;;;;;;9.73;7.77;;;;;;;22.88;43.26;95425.66;6336766;27;109176;-67
2023/09/11 05:53:04;;;;;;;10.52;7.50;;;;;;;23.03;42.80;95421.84;6332187;27;109359;-67
2023/09/11 05:56:07;;;;;;;9.90;8.90;;;;;;;23.05;42.71;95423.13;6337455;27;109327;-67
2023/09/11 05:59:11;;;;;;;8.90;8.00;;;;;;;23.09;42.88;95425.97;6314167;27;109150;-66
2023/09/11 06:02:14;;;;;;;10.68;9.25;;;;;;;23.14;43.54;95417.84;6329680;27;110504;-67
2023/09/11 06:05:18;;;;;;;9.70;8.70;;;;;;;23.20;44.16;95416.63;6337264;27;109036;-68
2023/09/11 06:08:21;;;;;;;8.95;8.05;;;;;;;23.28;43.52;95416.69;6337669;27;109304;-68
2023/09/11 06:11:24;;;;;;;10.10;9.10;;;;;;;23.17;43.53;95420.69;6337488;27;109271;-68
2023/09/11 06:14:28;;;;;;;11.05;9.20;;;;;;;23.29;43.56;95420.97;6327602;27;108797;-68
2023/09/11 06:17:31;;;;;;;10.68;9.60;;;;;;;23.41;43.84;95425.75;6336730;27;109075;-68
2023/09/11 06:20:48;;;;;;;14.10;12.70;;;;;;;23.44;43.37;95435.03;6337392;27;109072;-68
2023/09/11 06:23:51;;;;;;;12.25;10.95;;;;;;;23.42;43.89;95437.22;6338215;27;108806;-67
2023/09/11 06:27:04;;;;;;;9.88;8.88;;;;;;;23.48;43.13;95441.34;6326888;27;109163;-67
2023/09/11 06:30:08;;;;;;;8.73;7.82;;;;;;;23.61;43.05;95445.84;6337142;27;109040;-68
2023/09/11 06:33:11;;;;;;;8.70;7.80;;;;;;;23.59;43.28;95440.00;6337652;27;108970;-68
2023/09/11 06:36:16;;;;;;;8.20;6.97;;;;;;;23.70;42.70;95437.88;6327361;27;110378;-68
2023/09/11 06:39:19;;;;;;;7.82;6.90;;;;;;;23.79;42.37;95436.03;6337117;27;109110;-68
2023/09/11 06:42:24;;;;;;;7.10;6.40;;;;;;;23.84;42.27;95434.00;6337670;27;108981;-68
2023/09/11 06:45:27;;;;;;;7.87;6.50;;;;;;;23.94;41.88;95440.97;6337413;27;109930;-68
2023/09/11 06:48:30;;;;;;;6.47;5.87;;;;;;;23.97;41.72;95442.25;6326598;27;109290;-68
2023/09/11 06:51:36;;;;;;;7.35;6.35;;;;;;;23.95;41.24;95439.09;6337089;27;109189;-69
2023/09/11 06:54:39;;;;;;;6.63;5.97;;;;;;;24.01;41.77;95437.88;6337068;27;109901;-67
2023/09/11 06:57:54;;;;;;;8.77;6.60;;;;;;;24.31;41.48;95431.72;6336159;27;109035;-63
2023/09/11 07:00:57;;;;;;;7.57;6.00;;;;;;;24.57;40.95;95433.69;6326444;27;109047;-63
2023/09/11 07:04:00;;;;;;;8.10;6.10;;;;;;;24.71;40.71;95434.38;6336846;27;109043;-63
2023/09/11 07:07:05;;;;;;;6.68;5.97;;;;;;;24.85;40.93;95431.53;6336299;27;109149;-63
2023/09/11 07:10:11;;;;;;;7.82;6.85;;;;;;;24.91;40.53;95430.28;6330823;27;109024;-63
2023/09/11 07:13:17;;;;;;;7.38;6.63;;;;;;;24.99;40.40;95430.28;6334356;27;109122;-63
2023/09/11 07:16:20;;;;;;;8.63;7.07;;;;;;;25.11;40.12;95428.88;6336821;27;109221;-63
2023/09/11 07:19:23;;;;;;;7.90;7.10;;;;;;;25.11;40.93;95418.97;6337032;27;108885;-64
2023/09/11 07:22:28;;;;;;;6.80;6.20;;;;;;;24.79;41.42;95422.88;6326163;27;110011;-63
2023/09/11 07:25:31;;;;;;;8.10;5.83;;;;;;;24.63;41.18;95424.41;6335851;27;110263;-63
2023/09/11 07:28:52;;;;;;;8.87;6.50;;;;;;;24.56;41.50;95418.72;6319038;27;110378;-63
2023/09/11 07:31:55;;;;;;;7.25;5.70;;;;;;;24.60;41.29;95417.00;6335165;27;109159;-65
2023/09/11 07:34:59;;;;;;;8.82;5.60;;;;;;;24.88;41.09;95423.69;6330222;27;109028;-64
2023/09/11 07:38:05;;;;;;;6.20;5.60;;;;;;;25.12;40.96;95415.16;6341131;27;110351;-63
2023/09/11 07:41:08;;;;;;;6.60;5.82;;;;;;;25.27;40.40;95413.91;6341206;27;110153;-63
2023/09/11 07:44:12;;;;;;;9.85;6.47;;;;;;;25.30;40.15;95413.25;6335332;27;109226;-63
2023/09/11 07:47:15;;;;;;;8.07;5.90;;;;;;;25.33;40.33;95418.78;6336281;27;110105;-63
2023/09/11 07:50:18;;;;;;;7.30;6.18;;;;;;;25.43;40.14;95415.00;6340524;27;109250;-64
2023/09/11 07:53:23;;;;;;;6.80;5.90;;;;;;;25.55;39.70;95414.38;6340550;27;109231;-65
2023/09/11 07:56:26;;;;;;;7.50;6.50;;;;;;;25.58;39.73;95414.53;6329710;27;109279;-65
2023/09/11 07:59:29;;;;;;;7.00;6.28;;;;;;;25.59;39.63;95413.41;6340913;27;109964;-65
2023/09/11 08:02:33;;;;;;;6.75;5.90;;;;;;;25.59;40.16;95404.59;6339998;27;109025;-64
2023/09/11 08:05:36;;;;;;;8.68;6.50;;;;;;;25.60;39.86;95406.94;6340711;27;108839;-64
2023/09/11 08:08:40;;;;;;;9.45;7.00;;;;;;;25.61;40.00;95407.72;6330375;27;109229;-64
2023/09/11 08:11:44;;;;;;;7.85;6.00;;;;;;;25.62;39.87;95407.41;6339820;27;110393;-64
2023/09/11 08:14:47;;;;;;;7.88;6.60;;;;;;;25.64;39.80;95410.56;6340346;27;109035;-64
2023/09/11 08:17:51;;;;;;;6.60;5.90;;;;;;;25.66;40.04;95405.66;6336178;27;109614;-64
2023/09/11 08:20:54;;;;;;;6.37;5.63;;;;;;;25.72;39.48;95402.81;6333331;27;109024;-64
2023/09/11 08:23:58;;;;;;;6.97;5.72;;;;;;;25.76;39.37;95404.53;6340079;27;110149;-64
2023/09/11 08:27:02;;;;;;;8.75;5.95;;;;;;;25.78;39.33;95404.22;6339319;27;109488;-64
2023/09/11 08:30:06;;;;;;;10.10;6.00;;;;;;;25.79;39.31;95390.47;6329222;27;109224;-64
2023/09/11 08:33:09;;;;;;;7.67;5.80;;;;;;;25.73;39.39;95389.09;6339633;27;109195;-63
2023/09/11 08:36:12;;;;;;;8.10;5.50;;;;;;;25.70;39.37;95387.03;6339857;27;109999;-63
2023/09/11 08:39:17;;;;;;;7.45;5.70;;;;;;;25.70;39.13;95389.72;6338998;27;109225;-63
2023/09/11 08:42:20;;;;;;;6.90;5.30;;;;;;;25.74;38.86;95389.88;6329146;27;110112;-63
2023/09/11 08:45:25;;;;;;;7.38;5.30;;;;;;;25.76;39.24;95383.09;6339188;27;109045;-63
2023/09/11 08:48:30;;;;;;;5.80;5.20;;;;;;;25.79;38.77;95381.66;6340035;27;110033;-63
2023/09/11 08:51:38;;;;;;;5.90;4.60;;;;;;;25.84;38.51;95368.84;6339279;27;108936;-64
2023/09/11 08:54:44;;;;;;;7.07;4.57;;;;;;;25.85;38.40;95380.34;6328437;27;109126;-63
2023/09/11 08:57:48;;;;;;;6.70;4.40;;;;;;;25.80;38.34;95367.13;6326461;27;110472;-63
2023/09/11 09:00:51;;;;;;;5.57;4.53;;;;;;;25.91;38.53;95365.69;6319031;27;109073;-64
2023/09/11 09:03:55;;;;;;;5.72;5.13;;;;;;;25.95;38.09;95366.59;6333140;27;109761;-64
2023/09/11 09:07:00;;;;;;;6.60;4.60;;;;;;;26.00;38.28;95363.75;6336502;27;109195;-64
2023/09/11 09:10:06;;;;;;;5.70;5.13;;;;;;;25.98;38.03;95365.97;6338213;27;109244;-63
2023/09/11 09:13:10;;;;;;;5.50;4.60;;;;;;;25.95;38.17;95358.56;6339102;27;110510;-64
2023/09/11 09:16:13;;;;;;;4.60;4.03;;;;;;;25.91;37.79;95354.97;6327955;27;109714;-64
2023/09/11 09:19:16;;;;;;;6.60;5.10;;;;;;;25.95;37.84;95353.19;6339221;27;110234;-63
2023/09/11 09:22:19;;;;;;;5.10;4.57;;;;;;;25.98;37.82;95347.19;6338618;27;109086;-64
2023/09/11 09:25:25;;;;;;;5.35;4.60;;;;;;;26.02;37.97;95344.66;6338821;27;110196;-63
2023/09/11 09:28:29;;;;;;;6.00;5.03;;;;;;;26.04;38.00;95343.22;6327637;27;109869;-63
2023/09/11 09:31:39;;;;;;;8.00;5.00;;;;;;;26.07;38.00;95339.13;6338159;27;109012;-63
2023/09/11 09:34:50;;;;;;;5.30;4.60;;;;;;;26.09;38.01;95332.34;6338626;27;108729;-63
2023/09/11 09:37:55;;;;;;;5.03;4.40;;;;;;;26.11;37.74;95332.00;6332981;27;109054;-64
2023/09/11 09:41:09;;;;;;;6.05;4.60;;;;;;;26.10;37.68;95327.75;6333969;27;109068;-64
2023/09/11 09:44:28;;;;;;;6.20;4.43;;;;;;;26.02;37.53;95331.25;6338191;27;109449;-63
2023/09/11 09:47:31;;;;;;;4.60;4.20;;;;;;;25.90;36.80;95323.88;6337905;27;109019;-63
2023/09/11 09:50:53;;;;;;;4.88;4.20;;;;;;;25.97;37.20;95319.59;6326268;27;109435;-63
2023/09/11 09:53:56;;;;;;;4.90;4.40;;;;;;;25.95;36.56;95313.75;6337725;27;109018;-63
2023/09/11 09:57:02;;;;;;;4.93;3.83;;;;;;;25.92;37.27;95317.09;6337053;27;108916;-63
2023/09/11 10:00:07;;;;;;;4.30;3.80;;;;;;;25.87;36.78;95313.78;6335603;27;110162;-63
2023/09/11 10:03:11;;;;;;;4.57;4.18;;;;;;;25.90;36.59;95313.16;6332134;27;109204;-62
2023/09/11 10:06:16;;;;;;;4.93;4.20;;;;;;;25.95;36.82;95307.59;6338140;27;110140;-63
2023/09/11 10:09:21;;;;;;;5.50;4.20;;;;;;;25.99;37.00;95311.22;6338012;27;109998;-63
2023/09/11 10:12:25;;;;;;;4.65;4.15;;;;;;;26.02;37.27;95301.75;6327011;27;109020;-63
2023/09/11 10:15:30;;;;;;;5.00;3.90;;;;;;;25.95;36.79;95296.88;6337003;27;108995;-63
2023/09/11 10:18:34;;;;;;;5.60;4.20;;;;;;;25.91;37.00;95295.97;6337553;27;109180;-63
2023/09/11 10:21:38;;;;;;;4.73;4.10;;;;;;;25.89;37.01;95284.78;6337445;27;109186;-62
2023/09/11 10:24:41;;;;;;;5.20;4.40;;;;;;;25.86;37.41;95282.72;6326755;27;109145;-63
2023/09/11 10:27:48;;;;;;;5.10;4.40;;;;;;;25.86;37.15;95285.41;6336889;27;109690;-63
2023/09/11 10:30:55;;;;;;;5.40;4.40;;;;;;;25.85;37.25;95275.78;6337167;27;111609;-63
2023/09/11 10:34:11;;;;;;;5.50;4.40;;;;;;;25.86;37.02;95277.38;6334981;27;109055;-64
2023/09/11 10:37:15;;;;;;;5.20;4.70;;;;;;;25.89;37.26;95276.75;6329433;27;109076;-63
2023/09/11 10:40:19;;;;;;;4.87;4.10;;;;;;;25.83;37.36;95272.66;6337078;27;109296;-63
2023/09/11 10:43:24;;;;;;;5.40;4.72;;;;;;;25.79;37.50;95261.78;6337430;27;110416;-63
2023/09/11 10:46:36;;;;;;;5.10;4.50;;;;;;;25.79;37.31;95266.38;6326866;27;110139;-63
2023/09/11 10:49:42;;;;;;;4.78;4.10;;;;;;;25.79;37.50;95267.16;6337236;27;109107;-63
2023/09/11 10:52:46;;;;;;;4.65;4.25;;;;;;;25.82;37.50;95268.41;6337292;27;109187;-63
2023/09/11 10:55:52;;;;;;;4.93;4.20;;;;;;;25.79;37.34;95259.13;6337109;27;109125;-65
2023/09/11 10:58:58;;;;;;;4.90;4.10;;;;;;;25.73;37.63;95251.59;6307375;27;109831;-64
2023/09/11 11:02:02;;;;;;;4.90;4.20;;;;;;;25.66;37.58;95246.72;6319067;27;109274;-63
2023/09/11 11:05:05;;;;;;;4.07;3.67;;;;;;;25.67;37.48;95246.41;6336401;27;109077;-64
2023/09/11 11:08:09;;;;;;;5.13;3.63;;;;;;;25.68;37.55;95247.19;6337198;27;109159;-64
2023/09/11 11:11:21;;;;;;;4.10;3.70;;;;;;;25.69;37.24;95243.38;6328120;27;110040;-64
2023/09/11 11:14:28;;;;;;;4.10;3.70;;;;;;;25.68;37.64;95237.25;6336486;27;108597;-64
2023/09/11 11:17:38;;;;;;;3.80;3.50;;;;;;;25.68;37.26;95237.25;6336666;27;110913;-65
2023/09/11 11:21:04;;;;;;;4.00;3.60;;;;;;;25.63;37.58;95239.34;6325822;27;109102;-65
2023/09/11 11:24:10;;;;;;;4.25;3.60;;;;;;;25.58;37.79;95231.47;6337166;27;109983;-64
2023/09/11 11:27:13;;;;;;;4.60;3.83;;;;;;;25.53;37.59;95235.13;6332134;27;109238;-63
2023/09/11 11:30:19;;;;;;;3.93;3.53;;;;;;;25.53;37.93;95228.97;6310728;27;109217;-64
2023/09/11 11:33:25;;;;;;;4.47;3.70;;;;;;;25.49;37.67;95228.84;6320324;27;109762;-64
2023/09/11 11:36:29;;;;;;;4.50;3.80;;;;;;;25.48;37.67;95221.13;6336254;27;109016;-63
2023/09/11 11:39:36;;;;;;;4.00;3.60;;;;;;;25.47;37.71;95227.59;6336208;27;109227;-63
2023/09/11 11:42:41;;;;;;;3.67;3.30;;;;;;;25.47;37.54;95220.34;6330873;27;109213;-63
2023/09/11 11:45:47;;;;;;;3.80;3.40;;;;;;;25.42;37.70;95217.06;6329886;27;111199;-63
2023/09/11 11:48:51;;;;;;;5.30;3.58;;;;;;;25.39;37.65;95210.47;6335512;27;109142;-63
2023/09/11 11:51:55;;;;;;;3.97;3.20;;;;;;;25.42;37.56;95207.13;6336090;27;110383;-64
2023/09/11 11:54:58;;;;;;;3.53;3.22;;;;;;;25.45;37.96;95209.16;6325553;27;109306;-64
2023/09/11 11:58:01;;;;;;;3.55;3.25;;;;;;;25.43;37.64;95213.28;6325536;27;109052;-63
2023/09/11 12:01:06;;;;;;;4.00;3.33;;;;;;;25.42;37.45;95207.13;6310167;27;109202;-64
2023/09/11 12:04:09;;;;;;;3.63;3.30;;;;;;;25.42;37.59;95190.28;6333579;27;110963;-64
2023/09/11 12:07:13;;;;;;;4.10;3.70;;;;;;;25.42;37.56;95201.78;6324764;27;109910;-68
2023/09/11 12:10:16;;;;;;;4.18;3.30;;;;;;;25.41;37.82;95194.84;6335513;27;109007;-70
2023/09/11 12:13:22;;;;;;;4.45;3.50;;;;;;;25.36;37.82;95193.13;6335717;27;109048;-69
2023/09/11 12:16:46;;;;;;;3.67;3.10;;;;;;;25.32;38.02;95178.75;6335245;27;109191;-67
2023/09/11 12:19:49;;;;;;;3.65;3.30;;;;;;;25.32;37.95;95184.13;6334476;27;109065;-70
2023/09/11 12:22:52;;;;;;;3.40;3.10;;;;;;;25.34;37.95;95183.81;6340162;27;109565;-72
2023/09/11 12:25:56;;;;;;;3.38;3.08;;;;;;;25.35;38.10;95174.69;6340587;27;110041;-69
2023/09/11 12:28:59;;;;;;;3.60;3.30;;;;;;;25.35;37.76;95182.72;6329155;27;109089;-68
2023/09/11 12:32:04;;;;;;;5.63;3.20;;;;;;;25.32;37.80;95169.94;6339632;27;109187;-69
2023/09/11 12:35:08;;;;;;;3.30;3.00;;;;;;;25.31;37.48;95160.34;6339847;27;110813;-69
2023/09/11 12:38:12;;;;;;;5.00;3.40;;;;;;;25.35;37.21;95156.72;6339726;27;109281;-68
2023/09/11 12:41:15;;;;;;;4.50;3.53;;;;;;;25.31;37.70;95157.66;6330380;27;109807;-69
2023/09/11 12:44:18;;;;;;;4.03;3.63;;;;;;;25.30;37.79;95164.13;6340010;27;109183;-68
2023/09/11 12:47:23;;;;;;;4.00;3.15;;;;;;;25.29;37.72;95159.88;6340034;27;109068;-68
2023/09/11 12:50:27;;;;;;;4.03;3.40;;;;;;;25.30;37.40;95161.44;6339920;27;109078;-68
2023/09/11 12:53:30;;;;;;;3.72;3.38;;;;;;;25.30;37.37;95162.25;6328653;27;109056;-68
2023/09/11 12:56:35;;;;;;;4.53;3.60;;;;;;;25.29;37.48;95158.00;6339975;27;108988;-68
2023/09/11 12:59:38;;;;;;;5.10;3.65;;;;;;;25.29;36.84;95154.53;6316462;27;109305;-69
2023/09/11 13:02:43;;;;;;;4.85;3.60;;;;;;;25.30;37.36;95150.72;6313190;27;108985;-66
2023/09/11 13:05:46;;;;;;;4.82;3.90;;;;;;;25.28;36.97;95148.38;6338425;27;109345;-68
2023/09/11 13:08:49;;;;;;;4.72;3.63;;;;;;;25.31;36.94;95149.63;6338741;27;109092;-69
2023/09/11 13:11:52;;;;;;;4.30;3.80;;;;;;;25.29;37.39;95143.81;6339224;27;108988;-67
2023/09/11 13:14:56;;;;;;;4.17;3.77;;;;;;;25.29;37.52;95146.50;6329057;27;108910;-63
2023/09/11 13:18:00;;;;;;;4.30;3.80;;;;;;;25.25;37.10;95146.34;6338462;27;109798;-64
2023/09/11 13:21:03;;;;;;;4.10;3.70;;;;;;;25.26;37.48;95141.78;6338687;27;108979;-63
2023/09/11 13:24:07;;;;;;;4.80;4.40;;;;;;;25.25;37.33;95143.69;6338410;27;109159;-64
2023/09/11 13:27:11;;;;;;;5.45;4.28;;;;;;;25.27;37.51;95146.03;6326494;27;109024;-64
2023/09/11 13:30:14;;;;;;;4.43;4.03;;;;;;;25.25;37.48;95130.28;6312675;27;109140;-64
2023/09/11 13:33:19;;;;;;;4.72;4.25;;;;;;;25.24;37.45;95130.63;6325685;27;108968;-64
2023/09/11 13:36:22;;;;;;;5.40;4.40;;;;;;;25.22;37.63;95130.94;6332686;27;109146;-64
2023/09/11 13:39:25;;;;;;;4.70;4.30;;;;;;;25.23;37.26;95139.75;6332787;27;109444;-64
2023/09/11 13:42:28;;;;;;;4.77;4.37;;;;;;;25.22;37.44;95138.97;6338092;27;109358;-64
2023/09/11 13:45:31;;;;;;;4.50;4.10;;;;;;;25.23;37.28;95137.06;6337913;27;109201;-64
2023/09/11 13:48:36;;;;;;;4.82;4.25;;;;;;;25.22;37.23;95130.16;6328028;27;108998;-64
2023/09/11 13:51:40;;;;;;;4.80;4.23;;;;;;;25.22;37.33;95130.94;6337992;27;109171;-64
2023/09/11 13:54:44;;;;;;;4.40;3.85;;;;;;;25.22;37.18;95141.66;6338065;27;109165;-64
2023/09/11 13:57:47;;;;;;;4.43;4.03;;;;;;;25.22;37.18;95128.25;6337684;27;109867;-63
2023/09/11 14:00:50;;;;;;;4.40;3.90;;;;;;;25.23;36.87;95131.72;6326091;27;109143;-63
2023/09/11 14:03:55;;;;;;;4.88;3.90;;;;;;;25.18;37.14;95121.16;6337455;27;109037;-63
2023/09/11 14:06:59;;;;;;;4.88;4.30;;;;;;;25.22;37.35;95128.25;6337257;27;108791;-63
2023/09/11 14:10:03;;;;;;;4.95;4.55;;;;;;;25.21;37.69;95120.56;6336890;27;109569;-63
2023/09/11 14:13:09;;;;;;;5.38;4.85;;;;;;;25.21;37.22;95131.25;6327852;27;110258;-64
2023/09/11 14:16:13;;;;;;;5.93;4.50;;;;;;;25.20;37.13;95117.06;6337546;27;109471;-64
2023/09/11 14:19:18;;;;;;;5.95;5.18;;;;;;;25.20;36.96;95113.59;6337131;27;110207;-64